• Join FlightAware (Why Join?)
  • Login
  • US Flag 
11:31AM EDT


 

Airport Tracker/Info


-or-


 

Live Flight TrackerFlight Track Log ✈ AWE1940 ✈ 23-May-2013 ✈ KCLT - KALB

Flight Track Log - Related Links

Times and Time Zones

All times are in EDT time to prevent confusion due to time zone crossing. See the AWE1940 flight status page for this flight to view local times or setup timezone preferences in your user account.

Time Position Orientation Groundspeed Altitude Reporting Facility
EDT Latitude Longitude Course Direction KTS MPH feet Rate Location/Type
11:18PM 35.2347 -80.9392 72° East 171 197 1,800  Level Atlanta Center
11:19PM 35.2822 -80.9219 16° North 210 242 3,500 1,980 Climbing Atlanta Center
11:20PM 35.2989 -80.8425 76° East 295 339 5,900 2,580 Climbing Atlanta Center
11:21PM 35.2409 -80.5375 30° Northeast  Level FlightAware Approximate
11:21PM 35.3464 -80.7414 60° Northeast 289 333 9,300  Level Atlanta Center
11:22PM 35.3338 -80.4649 72° East  Level FlightAware Approximate
11:22PM 35.4136 -80.6775 38° Northeast 283 326 11,800  Level Atlanta Center
11:23PM 35.3706 -80.3256 72° East  Level FlightAware Approximate
11:23PM 35.4889 -80.6081 37° Northeast 316 364 13,400  Level Atlanta Center
11:24PM 35.5614 -80.5208 44° Northeast 355 409 15,300 1,980 Climbing Atlanta Center
11:25PM 35.6381 -80.4256 45° Northeast 380 437 17,400 1,860 Climbing Atlanta Center
11:26PM 35.7103 -80.3331 46° Northeast 395 455 19,100 2,100 Climbing Atlanta Center
11:27PM 35.7944 -80.2217 47° Northeast 400 460 21,600 1,920 Climbing Atlanta Center
11:28PM 35.8703 -80.1156 49° Northeast 406 467 23,000 1,500 Climbing Atlanta Center
11:29PM 35.9394 -79.9967 54° Northeast 406 467 24,700 1,260 Climbing Atlanta Center
11:31PM 36.0472 -79.7847 58° Northeast 430 495 26,800 840 Climbing Washington Center
11:32PM 36.1089 -79.6286 64° Northeast 445 512 27,200 600 Climbing Washington Center
11:33PM 36.1450 -79.4864 73° East 466 536 28,000 1,200 Climbing Washington Center
11:34PM 36.1833 -79.3286 73° East 472 543 29,600 1,380 Climbing Washington Center
11:35PM 36.2239 -79.1581 74° East 472 543 30,900 1,320 Climbing Washington Center
11:36PM 36.2886 -79.0142 61° Northeast 472 543 32,300 1,020 Climbing Washington Center
11:37PM 36.3533 -78.8647 62° Northeast 481 554 33,000 300 Climbing Washington Center
11:38PM 36.4197 -78.7231 60° Northeast 475 547 33,000  Level Washington Center
11:39PM 36.4881 -78.5811 59° Northeast 475 547 33,000  Level Washington Center
11:40PM 36.5542 -78.4336 61° Northeast 475 547 33,000  Level Washington Center
11:41PM 36.6203 -78.2886 60° Northeast 475 547 33,000  Level Washington Center
11:42PM 36.6772 -78.1583 61° Northeast 475 547 33,000  Level Washington Center
11:43PM 36.7475 -78.0000 61° Northeast 466 536 33,000  Level Washington Center
11:44PM 36.8128 -77.8567 60° Northeast 472 543 33,000  Level Washington Center
11:45PM 36.8781 -77.7106 61° Northeast 472 543 33,000  Level Washington Center
11:46PM 36.9367 -77.5772 61° Northeast 477 549 33,000  Level Washington Center
11:47PM 37.0014 -77.4331 61° Northeast 467 537 33,000  Level Washington Center
11:48PM 37.0661 -77.2864 61° Northeast 472 543 33,000  Level Washington Center
11:49PM 37.1286 -77.1392 62° Northeast 472 543 33,000  Level Washington Center
11:50PM 37.1911 -76.9919 62° Northeast 472 543 33,000  Level Washington Center
11:51PM 37.2553 -76.8494 60° Northeast 467 537 33,000  Level Washington Center
11:52PM 37.3278 -76.6808 62° Northeast 478 550 33,000  Level Washington Center
11:53PM 37.3936 -76.5328 61° Northeast 478 550 33,000  Level Washington Center
11:54PM 37.4572 -76.3819 62° Northeast 478 550 33,000  Level Washington Center
11:55PM 37.5497 -76.2544 48° Northeast 478 550 33,000  Level Washington Center
11:55PM 37.5497 -76.2544 48° Northeast 478 550 33,000 -120 Level Washington Center
11:56PM 37.6650 -76.1558 34° Northeast 490 564 32,900 -120 Descending Washington Center
11:56PM 37.6650 -76.1558 34° Northeast 490 564 32,900  Level Washington Center
11:57PM 37.7550 -76.0725 36° Northeast 490 564 32,900  Level Washington Center
11:57PM 37.7550 -76.0725 36° Northeast 490 564 32,900 60 Level Washington Center
11:58PM 37.8869 -75.9392 39° Northeast 496 571 33,000 60 Climbing Washington Center
11:58PM 37.8869 -75.9392 39° Northeast 496 571 33,000  Level Washington Center
11:59PM 37.9997 -75.8369 36° Northeast 501 577 33,000  Level Washington Center
12:00AM 38.1106 -75.7289 37° Northeast 501 577 33,000  Level Washington Center
12:01AM 38.2253 -75.6233 36° Northeast 506 582 33,000 -60 Level Washington Center
12:02AM 38.3294 -75.5336 34° Northeast 506 582 32,900 -60 Descending Washington Center
12:03AM 38.4567 -75.4644 23° Northeast 491 565 32,900  Level Washington Center
12:04AM 38.5878 -75.4164 16° North 491 565 32,900  Level Washington Center
12:05AM 38.7214 -75.3603 18° North 491 565 32,900  Level Washington Center
12:06AM 38.8544 -75.2983 20° North 491 565 32,900  Level Washington Center
12:07AM 38.9858 -75.2444 18° North 497 572 32,900  Level Washington Center
12:08AM 39.1189 -75.1878 18° North 497 572 32,900  Level Washington Center
12:09AM 39.2522 -75.1333 18° North 502 578 32,900  Level Washington Center
12:10AM 39.3725 -75.0439 30° Northeast 496 571 32,900  Level Washington Center
12:11AM 39.4806 -74.9356 38° Northeast 487 560 32,900  Level Washington Center
12:12AM 39.5903 -74.8242 38° Northeast 492 566 32,900  Level Washington Center
12:13AM 39.6997 -74.7122 38° Northeast 497 572 32,900  Level Washington Center
12:14AM 39.8114 -74.6136 34° Northeast 499 574 32,900  Level New York Center
12:15AM 39.9189 -74.5058 38° Northeast 493 567 32,900  Level New York Center
12:16AM 40.0267 -74.3925 39° Northeast 488 562 32,900  Level New York Center
12:17AM 40.1322 -74.2839 38° Northeast 482 555 32,900  Level New York Center
12:18AM 40.2517 -74.1922 30° Northeast 482 555 32,900  Level New York Center
12:19AM 40.3767 -74.1167 25° Northeast 482 555 32,900 -480 Level New York Center
12:20AM 40.5017 -74.0436 24° Northeast 482 555 32,000 -2,880 Descending New York Center
12:21AM 40.6308 -73.9650 25° Northeast 492 566 27,200 -2,580 Descending New York Center
12:23AM 40.8881 -73.7469 33° Northeast 493 567 23,900 -1,320 Descending Boston Center
12:24AM 40.9811 -73.6222 45° Northeast 477 549 23,000 -540 Descending Boston Center
12:25AM 41.0781 -73.5194 39° Northeast 470 541 22,900 -660 Descending Boston Center
12:26AM 41.1950 -73.5047 North 417 480 21,700 -1,860 Descending Boston Center
12:27AM 41.3094 -73.5261 352° North 401 461 19,200 -1,380 Descending Boston Center
12:28AM 41.4114 -73.5472 351° North 401 461 19,000 -120 Descending Boston Center
12:29AM 41.5361 -73.5689 353° North 406 467 19,000 -960 Level Boston Center
12:30AM 41.6358 -73.5900 351° North 406 467 17,100 -1,800 Descending Boston Center
12:31AM 41.7586 -73.6117 353° North 406 467 15,500 -1,500 Descending Boston Center
12:32AM 41.8356 -73.6272 351° North 434 499 14,600 -1,260 Descending Boston Center
12:32AM 41.8731 -73.6333 353° North 441 507 14,300 -1,320 Descending Boston Center
12:33AM 41.9897 -73.6522 353° North 425 489 12,900 -1,320 Descending Boston Center
12:34AM 42.0956 -73.6739 351° North 423 487 11,700 -1,200 Descending Boston Center
12:35AM 42.1964 -73.6200 22° Northeast 392 451 10,600 -900 Descending Boston Center
12:36AM 42.2656 -73.5708 28° Northeast 371 427 9,900 -1,200 Descending Boston Center
12:37AM 42.3725 -73.5081 23° Northeast 306 352 8,200 -1,620 Descending Boston Center
12:38AM 42.4500 -73.4728 19° North 300 345 6,700 -1,560 Descending Boston Center
12:39AM 42.5294 -73.4431 15° North 294 338 5,100 -1,080 Descending Boston Center
12:40AM 42.6083 -73.4614 350° North 280 322 4,600 -600 Descending Boston Center
12:41AM 42.6894 -73.4881 346° North 279 321 4,000 -540 Descending Boston Center
12:42AM 42.7600 -73.5231 340° North 273 314 3,600 -540 Descending Boston Center
12:43AM 42.8178 -73.5892 320° Northwest 264 304 3,000 -300 Descending Boston Center
12:44AM 42.8733 -73.6556 319° Northwest 262 302 3,000 -300 Level Boston Center
12:45AM 42.9247 -73.7161 319° Northwest 247 284 2,500 -540 Descending Boston Center
12:46AM 42.9236 -73.8011 269° West 214 246 2,000 -300 Descending Boston Center
12:47AM 42.8694 -73.8139 190° South 197 227 2,000 -300 Level Boston Center
12:48AM 42.8214 -73.8131 179° South 177 204 1,500 -540 Descending Boston Center